Quick Links (Output Below):   Max & Min Temps   /   Climate Reports   /   Zone Forecasts
River Forecasts   /   Forestry Forecasts   /   Aviation Forecasts   /   Radars   /   Features

Terminal Aerodrome Forecast (Texarkana)

Pick a Site:
Arkadelphia | El Dorado | Fayetteville | Fort Smith | Harrison | Highfill | Hot Springs | Jonesboro
Little Rock | Monticello | Mountain Home | Pine Bluff | Texarkana
 Forecast 

KTXK 040538Z 0406/0506 VRB03KT P6SM FEW100
     FM041500 18005KT P6SM BKN250
     FM041800 17005KT P6SM SCT060 SCT250
     FM050100 14004KT P6SM SCT150 BKN250=


 Latest METARs (Observations) 
How to Decode METARs
09Z KTXK 040853Z AUTO 00000KT 10SM CLR 24/20 A2994 RMK AO2 SLP130
         T02390200 53008
         
08Z KTXK 040753Z AUTO 00000KT 10SM CLR 24/19 A2993 RMK AO2 SLP127
         T02390194
         
07Z KTXK 040653Z AUTO 11004KT 10SM CLR 25/19 A2991 RMK AO2 SLP123
         T02500194
         
06Z KTXK 040553Z AUTO 08003KT 10SM CLR 25/19 A2991 RMK AO2 SLP123
         T02500189 10339 20239 403720206 50000
         
05Z KTXK 040453Z AUTO 12004KT 10SM CLR 28/18 A2991 RMK AO2 SLP123
         T02830178
         
04Z KTXK 040353Z AUTO 11003KT 10SM CLR 28/18 A2992 RMK AO2 SLP125
         T02780183
         
03Z KTXK 040253Z AUTO 14004KT 10SM CLR 29/18 A2991 RMK AO2 SLP122
         T02940183 53006
         
02Z KTXK 040153Z AUTO 12004KT 10SM CLR 29/18 A2990 RMK AO2 SLP118
         T02940178
         
01Z KTXK 040053Z 00000KT 10SM CLR 32/18 A2990 RMK AO2 SLP118
         T03170178
         
00Z KTXK 032353Z 13003KT 10SM CLR 34/16 A2989 RMK AO2 SLP116 T03390156
         10372 20339 56007
         
***** Today's Observations (Above) *****


Back to Main Page
http://www.srh.noaa.gov/lzk/qfcst.php

USA.gov is the U.S. government's official web portal to all federal, state and local government web resources and services.